This is the latest recevied weather packets stored in our database for station/object CE3UOB-10. If no packets are shown the sender has not sent any weather packets the latest 10 day(s).
| Time | Temp. | Humidity | Pressure | Rain* | Wind** | Luminosity | Snow |
|---|---|---|---|---|---|---|---|
| 1778204637 | 12.22° C | 69% | 1002.3 hPa | - | - | - | - |
| 1778202878 | 12.78° C | 64% | 1002.1 hPa | - | - | - | - |
| 1778202841 | 12.78° C | 64% | 1002.1 hPa | - | - | - | - |
| 1778202837 | 12.78° C | 64% | 1002.1 hPa | - | - | - | - |
| 1778201200 | 12.78° C | 62% | 1002.2 hPa | - | - | - | - |
| 1778201080 | 12.78° C | 62% | 1002.2 hPa | - | - | - | - |
| 1778201048 | 12.78° C | 62% | 1002.2 hPa | - | - | - | - |
| 1778201037 | 12.78° C | 62% | 1002.2 hPa | - | - | - | - |
| 1778199239 | 10.56° C | 69% | 998.2 hPa | - | - | - | - |
| 1778199229 | 10.56° C | 69% | 998.2 hPa | - | - | - | - |
| 1778197432 | 13.33° C | 61% | 1002 hPa | - | - | - | - |
| 1778195682 | 13.89° C | 61% | 1002.2 hPa | - | - | - | - |
| 1778195636 | 13.89° C | 61% | 1002.2 hPa | - | - | - | - |
| 1778195632 | 13.89° C | 61% | 1002.2 hPa | - | - | - | - |
| 1778193906 | 13.33° C | 63% | 1002 hPa | - | - | - | - |
| 1778193836 | 13.33° C | 63% | 1002 hPa | - | - | - | - |
| 1778193831 | 13.33° C | 63% | 1002 hPa | - | - | - | - |
| 1778192094 | 13.89° C | 61% | 1002.1 hPa | - | - | - | - |
| 1778192036 | 13.89° C | 61% | 1002.1 hPa | - | - | - | - |
| 1778192031 | 13.89° C | 61% | 1002.1 hPa | - | - | - | - |
| 1778190302 | 14.44° C | 60% | 1001.9 hPa | - | - | - | - |
| 1778190236 | 14.44° C | 60% | 1001.9 hPa | - | - | - | - |
| 1778190231 | 14.44° C | 60% | 1001.9 hPa | - | - | - | - |
| 1778188436 | 13.89° C | 63% | 998.3 hPa | - | - | - | - |
| 1778188431 | 13.89° C | 63% | 998.3 hPa | - | - | - | - |
* Rain since midnight (hover to see other rain measurements)
** Current wind speed in m/s (hover to see current wind gust speed)